sensor_id;sensor_type;location;lat;lon;timestamp;P1;durP1;ratioP1;P2;durP2;ratioP2
7653;SDS011;3869;48.406;10.774;2023-04-29T00:01:16;0.50;;;0.50;;
7653;SDS011;3869;48.406;10.774;2023-04-29T00:03:44;0.60;;;0.60;;
7653;SDS011;3869;48.406;10.774;2023-04-29T00:06:14;0.70;;;0.70;;
7653;SDS011;3869;48.406;10.774;2023-04-29T00:08:42;0.80;;;0.80;;
7653;SDS011;3869;48.406;10.774;2023-04-29T00:11:10;1.07;;;0.80;;
7653;SDS011;3869;48.406;10.774;2023-04-29T00:13:38;0.80;;;0.80;;
7653;SDS011;3869;48.406;10.774;2023-04-29T00:16:07;0.50;;;0.50;;
7653;SDS011;3869;48.406;10.774;2023-04-29T00:18:35;0.83;;;0.83;;
7653;SDS011;3869;48.406;10.774;2023-04-29T00:21:03;1.10;;;1.10;;
7653;SDS011;3869;48.406;10.774;2023-04-29T00:23:33;1.47;;;1.37;;
7653;SDS011;3869;48.406;10.774;2023-04-29T00:26:01;0.50;;;0.50;;
7653;SDS011;3869;48.406;10.774;2023-04-29T00:28:29;0.47;;;0.47;;
7653;SDS011;3869;48.406;10.774;2023-04-29T00:30:57;0.70;;;0.70;;
7653;SDS011;3869;48.406;10.774;2023-04-29T00:33:25;0.50;;;0.50;;
7653;SDS011;3869;48.406;10.774;2023-04-29T00:35:53;1.87;;;0.67;;
7653;SDS011;3869;48.406;10.774;2023-04-29T00:38:21;0.40;;;0.40;;
7653;SDS011;3869;48.406;10.774;2023-04-29T00:40:50;0.70;;;0.70;;
7653;SDS011;3869;48.406;10.774;2023-04-29T00:43:19;0.50;;;0.50;;
7653;SDS011;3869;48.406;10.774;2023-04-29T00:45:47;0.93;;;0.60;;
7653;SDS011;3869;48.406;10.774;2023-04-29T00:48:16;0.50;;;0.50;;
7653;SDS011;3869;48.406;10.774;2023-04-29T00:50:43;1.90;;;1.80;;
7653;SDS011;3869;48.406;10.774;2023-04-29T00:53:11;1.57;;;1.33;;
7653;SDS011;3869;48.406;10.774;2023-04-29T00:55:40;1.10;;;1.10;;
7653;SDS011;3869;48.406;10.774;2023-04-29T00:58:11;0.73;;;0.73;;
7653;SDS011;3869;48.406;10.774;2023-04-29T01:00:40;0.80;;;0.80;;
7653;SDS011;3869;48.406;10.774;2023-04-29T01:03:09;1.00;;;1.00;;
7653;SDS011;3869;48.406;10.774;2023-04-29T01:05:37;0.70;;;0.70;;
7653;SDS011;3869;48.406;10.774;2023-04-29T01:08:10;3.30;;;1.77;;
7653;SDS011;3869;48.406;10.774;2023-04-29T01:10:45;0.93;;;0.90;;
7653;SDS011;3869;48.406;10.774;2023-04-29T01:13:25;1.03;;;1.03;;
7653;SDS011;3869;48.406;10.774;2023-04-29T01:15:59;4.90;;;1.00;;
7653;SDS011;3869;48.406;10.774;2023-04-29T01:18:31;2.23;;;1.37;;
7653;SDS011;3869;48.406;10.774;2023-04-29T01:21:02;0.70;;;0.70;;
7653;SDS011;3869;48.406;10.774;2023-04-29T01:23:31;0.97;;;0.93;;
7653;SDS011;3869;48.406;10.774;2023-04-29T01:25:59;1.80;;;1.70;;
7653;SDS011;3869;48.406;10.774;2023-04-29T01:28:32;0.80;;;0.80;;
7653;SDS011;3869;48.406;10.774;2023-04-29T01:31:10;0.90;;;0.90;;
7653;SDS011;3869;48.406;10.774;2023-04-29T01:33:46;0.70;;;0.70;;
7653;SDS011;3869;48.406;10.774;2023-04-29T01:36:20;1.20;;;1.10;;
7653;SDS011;3869;48.406;10.774;2023-04-29T01:38:57;0.83;;;0.83;;
7653;SDS011;3869;48.406;10.774;2023-04-29T01:41:34;0.60;;;0.60;;
7653;SDS011;3869;48.406;10.774;2023-04-29T01:44:07;1.47;;;1.30;;
7653;SDS011;3869;48.406;10.774;2023-04-29T01:46:42;0.90;;;0.90;;
7653;SDS011;3869;48.406;10.774;2023-04-29T01:49:11;1.50;;;1.40;;
7653;SDS011;3869;48.406;10.774;2023-04-29T01:51:39;0.97;;;0.97;;
7653;SDS011;3869;48.406;10.774;2023-04-29T01:54:08;0.80;;;0.80;;
7653;SDS011;3869;48.406;10.774;2023-04-29T01:56:36;1.20;;;1.20;;
7653;SDS011;3869;48.406;10.774;2023-04-29T01:59:04;0.93;;;0.93;;
7653;SDS011;3869;48.406;10.774;2023-04-29T02:01:33;0.70;;;0.70;;
7653;SDS011;3869;48.406;10.774;2023-04-29T02:04:01;4.53;;;1.90;;
7653;SDS011;3869;48.406;10.774;2023-04-29T02:06:29;1.10;;;1.03;;
7653;SDS011;3869;48.406;10.774;2023-04-29T02:08:58;0.83;;;0.83;;
7653;SDS011;3869;48.406;10.774;2023-04-29T02:11:28;3.17;;;1.60;;
7653;SDS011;3869;48.406;10.774;2023-04-29T02:13:56;1.10;;;1.10;;
7653;SDS011;3869;48.406;10.774;2023-04-29T02:16:24;1.43;;;1.33;;
7653;SDS011;3869;48.406;10.774;2023-04-29T02:18:52;1.87;;;0.90;;
7653;SDS011;3869;48.406;10.774;2023-04-29T02:21:20;0.73;;;0.73;;
7653;SDS011;3869;48.406;10.774;2023-04-29T02:23:48;1.27;;;1.23;;
7653;SDS011;3869;48.406;10.774;2023-04-29T02:26:16;1.77;;;1.67;;
7653;SDS011;3869;48.406;10.774;2023-04-29T02:28:46;1.00;;;0.93;;
7653;SDS011;3869;48.406;10.774;2023-04-29T02:31:14;1.07;;;1.00;;
7653;SDS011;3869;48.406;10.774;2023-04-29T02:33:42;5.53;;;1.20;;
7653;SDS011;3869;48.406;10.774;2023-04-29T02:36:10;0.60;;;0.60;;
7653;SDS011;3869;48.406;10.774;2023-04-29T02:38:38;0.90;;;0.90;;
7653;SDS011;3869;48.406;10.774;2023-04-29T02:41:07;1.10;;;1.10;;
7653;SDS011;3869;48.406;10.774;2023-04-29T02:43:35;0.80;;;0.80;;
7653;SDS011;3869;48.406;10.774;2023-04-29T02:46:04;2.83;;;1.70;;
7653;SDS011;3869;48.406;10.774;2023-04-29T02:48:32;0.90;;;0.80;;
7653;SDS011;3869;48.406;10.774;2023-04-29T02:51:00;1.10;;;1.10;;
7653;SDS011;3869;48.406;10.774;2023-04-29T02:53:28;8.60;;;1.43;;
7653;SDS011;3869;48.406;10.774;2023-04-29T02:55:56;1.10;;;1.10;;
7653;SDS011;3869;48.406;10.774;2023-04-29T02:58:24;0.90;;;0.70;;
7653;SDS011;3869;48.406;10.774;2023-04-29T03:00:52;0.60;;;0.60;;
7653;SDS011;3869;48.406;10.774;2023-04-29T03:03:22;1.03;;;1.03;;
7653;SDS011;3869;48.406;10.774;2023-04-29T03:05:50;0.97;;;0.93;;
7653;SDS011;3869;48.406;10.774;2023-04-29T03:08:18;0.63;;;0.63;;
7653;SDS011;3869;48.406;10.774;2023-04-29T03:10:47;1.03;;;1.03;;
7653;SDS011;3869;48.406;10.774;2023-04-29T03:13:15;0.63;;;0.63;;
7653;SDS011;3869;48.406;10.774;2023-04-29T03:15:43;0.60;;;0.60;;
7653;SDS011;3869;48.406;10.774;2023-04-29T03:18:11;0.63;;;0.63;;
7653;SDS011;3869;48.406;10.774;2023-04-29T03:20:40;0.90;;;0.90;;
7653;SDS011;3869;48.406;10.774;2023-04-29T03:23:08;0.80;;;0.80;;
7653;SDS011;3869;48.406;10.774;2023-04-29T03:25:36;0.80;;;0.80;;
7653;SDS011;3869;48.406;10.774;2023-04-29T03:28:04;0.70;;;0.70;;
7653;SDS011;3869;48.406;10.774;2023-04-29T03:30:33;0.80;;;0.80;;
7653;SDS011;3869;48.406;10.774;2023-04-29T03:33:01;6.20;;;1.50;;
7653;SDS011;3869;48.406;10.774;2023-04-29T03:35:30;0.70;;;0.70;;
7653;SDS011;3869;48.406;10.774;2023-04-29T03:37:59;1.03;;;1.03;;
7653;SDS011;3869;48.406;10.774;2023-04-29T03:40:27;0.90;;;0.90;;
7653;SDS011;3869;48.406;10.774;2023-04-29T03:42:55;1.67;;;1.03;;
7653;SDS011;3869;48.406;10.774;2023-04-29T03:45:23;0.90;;;0.90;;
7653;SDS011;3869;48.406;10.774;2023-04-29T03:47:51;1.20;;;1.10;;
7653;SDS011;3869;48.406;10.774;2023-04-29T03:50:19;1.67;;;1.67;;
7653;SDS011;3869;48.406;10.774;2023-04-29T03:52:47;1.13;;;1.13;;
7653;SDS011;3869;48.406;10.774;2023-04-29T03:55:17;2.30;;;0.80;;
7653;SDS011;3869;48.406;10.774;2023-04-29T03:57:45;1.17;;;1.00;;
7653;SDS011;3869;48.406;10.774;2023-04-29T04:00:13;1.03;;;1.03;;
7653;SDS011;3869;48.406;10.774;2023-04-29T04:02:42;1.57;;;1.00;;
7653;SDS011;3869;48.406;10.774;2023-04-29T04:05:10;2.20;;;1.63;;
7653;SDS011;3869;48.406;10.774;2023-04-29T04:07:39;0.83;;;0.83;;
7653;SDS011;3869;48.406;10.774;2023-04-29T04:10:07;2.53;;;1.90;;
7653;SDS011;3869;48.406;10.774;2023-04-29T04:12:37;0.77;;;0.60;;
7653;SDS011;3869;48.406;10.774;2023-04-29T04:15:07;1.00;;;1.00;;
7653;SDS011;3869;48.406;10.774;2023-04-29T04:17:36;1.83;;;1.13;;
7653;SDS011;3869;48.406;10.774;2023-04-29T04:20:04;1.50;;;1.40;;
7653;SDS011;3869;48.406;10.774;2023-04-29T04:22:33;2.10;;;2.00;;
7653;SDS011;3869;48.406;10.774;2023-04-29T04:25:01;1.30;;;1.20;;
7653;SDS011;3869;48.406;10.774;2023-04-29T04:27:29;1.63;;;1.30;;
7653;SDS011;3869;48.406;10.774;2023-04-29T04:29:59;1.77;;;1.67;;
7653;SDS011;3869;48.406;10.774;2023-04-29T04:32:27;2.43;;;1.70;;
7653;SDS011;3869;48.406;10.774;2023-04-29T04:34:55;2.10;;;2.00;;
7653;SDS011;3869;48.406;10.774;2023-04-29T04:37:23;1.70;;;1.60;;
7653;SDS011;3869;48.406;10.774;2023-04-29T04:39:51;1.37;;;1.20;;
7653;SDS011;3869;48.406;10.774;2023-04-29T04:42:19;1.67;;;1.37;;
7653;SDS011;3869;48.406;10.774;2023-04-29T04:44:48;1.20;;;1.20;;
7653;SDS011;3869;48.406;10.774;2023-04-29T04:47:18;1.67;;;1.57;;
7653;SDS011;3869;48.406;10.774;2023-04-29T04:49:46;2.77;;;1.40;;
7653;SDS011;3869;48.406;10.774;2023-04-29T04:52:15;4.93;;;2.40;;
7653;SDS011;3869;48.406;10.774;2023-04-29T04:54:43;1.40;;;1.40;;
7653;SDS011;3869;48.406;10.774;2023-04-29T04:57:12;1.80;;;1.57;;
7653;SDS011;3869;48.406;10.774;2023-04-29T04:59:40;1.27;;;1.17;;
7653;SDS011;3869;48.406;10.774;2023-04-29T05:02:08;1.50;;;1.40;;
7653;SDS011;3869;48.406;10.774;2023-04-29T05:04:37;4.90;;;2.00;;
7653;SDS011;3869;48.406;10.774;2023-04-29T05:07:05;1.63;;;1.53;;
7653;SDS011;3869;48.406;10.774;2023-04-29T05:09:34;1.23;;;1.23;;
7653;SDS011;3869;48.406;10.774;2023-04-29T05:12:02;1.53;;;1.43;;
7653;SDS011;3869;48.406;10.774;2023-04-29T05:14:30;2.17;;;2.07;;
7653;SDS011;3869;48.406;10.774;2023-04-29T05:16:58;1.73;;;1.63;;
7653;SDS011;3869;48.406;10.774;2023-04-29T05:19:27;1.20;;;1.20;;
7653;SDS011;3869;48.406;10.774;2023-04-29T05:21:56;2.07;;;1.87;;
7653;SDS011;3869;48.406;10.774;2023-04-29T05:24:24;2.80;;;1.97;;
7653;SDS011;3869;48.406;10.774;2023-04-29T05:26:52;4.60;;;1.60;;
7653;SDS011;3869;48.406;10.774;2023-04-29T05:29:20;2.50;;;1.60;;
7653;SDS011;3869;48.406;10.774;2023-04-29T05:31:48;2.23;;;2.00;;
7653;SDS011;3869;48.406;10.774;2023-04-29T05:34:16;2.20;;;1.73;;
7653;SDS011;3869;48.406;10.774;2023-04-29T05:36:44;1.50;;;1.40;;
7653;SDS011;3869;48.406;10.774;2023-04-29T05:39:14;2.70;;;2.00;;
7653;SDS011;3869;48.406;10.774;2023-04-29T05:41:42;1.17;;;1.17;;
7653;SDS011;3869;48.406;10.774;2023-04-29T05:44:10;4.07;;;3.50;;
7653;SDS011;3869;48.406;10.774;2023-04-29T05:46:38;3.23;;;2.30;;
7653;SDS011;3869;48.406;10.774;2023-04-29T05:49:07;2.50;;;1.97;;
7653;SDS011;3869;48.406;10.774;2023-04-29T05:51:35;1.57;;;1.57;;
7653;SDS011;3869;48.406;10.774;2023-04-29T05:54:03;1.97;;;1.80;;
7653;SDS011;3869;48.406;10.774;2023-04-29T05:56:32;2.20;;;1.30;;
7653;SDS011;3869;48.406;10.774;2023-04-29T05:59:00;0.97;;;0.97;;
7653;SDS011;3869;48.406;10.774;2023-04-29T06:01:28;2.00;;;1.53;;
7653;SDS011;3869;48.406;10.774;2023-04-29T06:03:56;1.87;;;1.77;;
7653;SDS011;3869;48.406;10.774;2023-04-29T06:06:25;1.97;;;1.87;;
7653;SDS011;3869;48.406;10.774;2023-04-29T06:08:54;5.80;;;1.90;;
7653;SDS011;3869;48.406;10.774;2023-04-29T06:11:22;1.83;;;1.73;;
7653;SDS011;3869;48.406;10.774;2023-04-29T06:13:51;1.70;;;1.37;;
7653;SDS011;3869;48.406;10.774;2023-04-29T06:16:19;3.03;;;1.40;;
7653;SDS011;3869;48.406;10.774;2023-04-29T06:18:47;2.20;;;2.10;;
7653;SDS011;3869;48.406;10.774;2023-04-29T06:21:15;1.37;;;1.37;;
7653;SDS011;3869;48.406;10.774;2023-04-29T06:23:43;1.43;;;1.33;;
7653;SDS011;3869;48.406;10.774;2023-04-29T06:26:11;4.40;;;2.87;;
7653;SDS011;3869;48.406;10.774;2023-04-29T06:28:39;2.93;;;2.07;;
7653;SDS011;3869;48.406;10.774;2023-04-29T06:31:09;2.17;;;1.73;;
7653;SDS011;3869;48.406;10.774;2023-04-29T06:33:37;1.30;;;1.30;;
7653;SDS011;3869;48.406;10.774;2023-04-29T06:36:05;1.63;;;1.53;;
7653;SDS011;3869;48.406;10.774;2023-04-29T06:38:33;2.50;;;2.00;;
7653;SDS011;3869;48.406;10.774;2023-04-29T06:41:01;2.30;;;2.10;;
7653;SDS011;3869;48.406;10.774;2023-04-29T06:43:29;1.50;;;1.40;;
7653;SDS011;3869;48.406;10.774;2023-04-29T06:45:57;4.67;;;1.43;;
7653;SDS011;3869;48.406;10.774;2023-04-29T06:48:27;15.03;;;1.93;;
7653;SDS011;3869;48.406;10.774;2023-04-29T06:50:56;2.27;;;2.07;;
7653;SDS011;3869;48.406;10.774;2023-04-29T06:53:25;1.70;;;1.70;;
7653;SDS011;3869;48.406;10.774;2023-04-29T06:55:53;2.90;;;2.30;;
7653;SDS011;3869;48.406;10.774;2023-04-29T06:58:21;3.63;;;2.20;;
7653;SDS011;3869;48.406;10.774;2023-04-29T07:00:49;2.63;;;1.93;;
7653;SDS011;3869;48.406;10.774;2023-04-29T07:03:17;2.73;;;2.53;;
7653;SDS011;3869;48.406;10.774;2023-04-29T07:05:47;1.50;;;1.40;;
7653;SDS011;3869;48.406;10.774;2023-04-29T07:08:15;1.97;;;1.87;;
7653;SDS011;3869;48.406;10.774;2023-04-29T07:10:43;1.60;;;1.47;;
7653;SDS011;3869;48.406;10.774;2023-04-29T07:13:11;5.63;;;3.53;;
7653;SDS011;3869;48.406;10.774;2023-04-29T07:15:39;1.83;;;1.50;;
7653;SDS011;3869;48.406;10.774;2023-04-29T07:18:07;1.50;;;1.40;;
7653;SDS011;3869;48.406;10.774;2023-04-29T07:20:35;6.10;;;1.93;;
7653;SDS011;3869;48.406;10.774;2023-04-29T07:23:05;2.30;;;2.20;;
7653;SDS011;3869;48.406;10.774;2023-04-29T07:25:33;2.30;;;2.10;;
7653;SDS011;3869;48.406;10.774;2023-04-29T07:28:01;1.73;;;1.67;;
7653;SDS011;3869;48.406;10.774;2023-04-29T07:30:29;1.77;;;1.70;;
7653;SDS011;3869;48.406;10.774;2023-04-29T07:32:57;7.33;;;1.30;;
7653;SDS011;3869;48.406;10.774;2023-04-29T07:35:26;1.47;;;1.37;;
7653;SDS011;3869;48.406;10.774;2023-04-29T07:37:54;1.63;;;1.53;;
7653;SDS011;3869;48.406;10.774;2023-04-29T07:40:24;1.77;;;1.20;;
7653;SDS011;3869;48.406;10.774;2023-04-29T07:42:52;1.30;;;1.20;;
7653;SDS011;3869;48.406;10.774;2023-04-29T07:45:20;1.20;;;1.10;;
7653;SDS011;3869;48.406;10.774;2023-04-29T07:47:48;1.70;;;1.60;;
7653;SDS011;3869;48.406;10.774;2023-04-29T07:50:16;4.70;;;1.50;;
7653;SDS011;3869;48.406;10.774;2023-04-29T07:52:44;1.87;;;1.77;;
7653;SDS011;3869;48.406;10.774;2023-04-29T07:55:12;1.73;;;1.63;;
7653;SDS011;3869;48.406;10.774;2023-04-29T07:57:42;0.80;;;0.80;;
7653;SDS011;3869;48.406;10.774;2023-04-29T08:00:10;1.60;;;1.50;;
7653;SDS011;3869;48.406;10.774;2023-04-29T08:02:38;1.07;;;0.97;;
7653;SDS011;3869;48.406;10.774;2023-04-29T08:05:07;1.90;;;1.23;;
7653;SDS011;3869;48.406;10.774;2023-04-29T08:07:36;2.53;;;1.20;;
7653;SDS011;3869;48.406;10.774;2023-04-29T08:10:04;1.63;;;1.53;;
7653;SDS011;3869;48.406;10.774;2023-04-29T08:12:33;1.13;;;1.13;;
7653;SDS011;3869;48.406;10.774;2023-04-29T08:15:03;1.27;;;1.17;;
7653;SDS011;3869;48.406;10.774;2023-04-29T08:17:34;1.67;;;1.67;;
7653;SDS011;3869;48.406;10.774;2023-04-29T08:20:03;1.07;;;1.07;;
7653;SDS011;3869;48.406;10.774;2023-04-29T08:22:33;0.70;;;0.70;;
7653;SDS011;3869;48.406;10.774;2023-04-29T08:25:02;1.13;;;1.07;;
7653;SDS011;3869;48.406;10.774;2023-04-29T08:27:30;1.57;;;1.07;;
7653;SDS011;3869;48.406;10.774;2023-04-29T08:29:58;1.30;;;1.20;;
7653;SDS011;3869;48.406;10.774;2023-04-29T08:32:28;0.77;;;0.77;;
7653;SDS011;3869;48.406;10.774;2023-04-29T08:34:56;1.57;;;1.23;;
7653;SDS011;3869;48.406;10.774;2023-04-29T08:37:24;0.90;;;0.90;;
7653;SDS011;3869;48.406;10.774;2023-04-29T08:39:52;2.23;;;1.00;;
7653;SDS011;3869;48.406;10.774;2023-04-29T08:42:27;2.00;;;1.60;;
7653;SDS011;3869;48.406;10.774;2023-04-29T08:45:01;0.70;;;0.70;;
7653;SDS011;3869;48.406;10.774;2023-04-29T08:47:32;0.80;;;0.80;;
7653;SDS011;3869;48.406;10.774;2023-04-29T08:50:01;1.20;;;1.10;;
7653;SDS011;3869;48.406;10.774;2023-04-29T08:52:30;1.00;;;1.00;;
7653;SDS011;3869;48.406;10.774;2023-04-29T08:54:59;1.27;;;1.27;;
7653;SDS011;3869;48.406;10.774;2023-04-29T08:57:28;1.27;;;1.17;;
7653;SDS011;3869;48.406;10.774;2023-04-29T09:00:05;0.80;;;0.80;;
7653;SDS011;3869;48.406;10.774;2023-04-29T09:02:38;1.40;;;0.80;;
7653;SDS011;3869;48.406;10.774;2023-04-29T09:05:11;0.83;;;0.80;;
7653;SDS011;3869;48.406;10.774;2023-04-29T09:07:39;1.87;;;1.20;;
7653;SDS011;3869;48.406;10.774;2023-04-29T09:10:08;0.63;;;0.63;;
7653;SDS011;3869;48.406;10.774;2023-04-29T09:12:37;0.90;;;0.90;;
7653;SDS011;3869;48.406;10.774;2023-04-29T09:15:05;0.80;;;0.80;;
7653;SDS011;3869;48.406;10.774;2023-04-29T09:17:39;0.80;;;0.80;;
7653;SDS011;3869;48.406;10.774;2023-04-29T09:20:27;0.80;;;0.80;;
7653;SDS011;3869;48.406;10.774;2023-04-29T09:22:57;1.50;;;0.97;;
7653;SDS011;3869;48.406;10.774;2023-04-29T09:25:26;0.70;;;0.70;;
7653;SDS011;3869;48.406;10.774;2023-04-29T09:27:55;0.70;;;0.70;;
7653;SDS011;3869;48.406;10.774;2023-04-29T09:30:23;0.80;;;0.80;;
7653;SDS011;3869;48.406;10.774;2023-04-29T09:33:06;0.80;;;0.80;;
7653;SDS011;3869;48.406;10.774;2023-04-29T09:35:35;0.93;;;0.93;;
7653;SDS011;3869;48.406;10.774;2023-04-29T09:38:07;0.67;;;0.67;;
7653;SDS011;3869;48.406;10.774;2023-04-29T09:40:37;0.83;;;0.73;;
7653;SDS011;3869;48.406;10.774;2023-04-29T09:43:23;0.90;;;0.90;;
7653;SDS011;3869;48.406;10.774;2023-04-29T09:45:51;0.70;;;0.70;;
7653;SDS011;3869;48.406;10.774;2023-04-29T09:48:21;0.60;;;0.60;;
7653;SDS011;3869;48.406;10.774;2023-04-29T09:51:00;0.70;;;0.70;;
7653;SDS011;3869;48.406;10.774;2023-04-29T09:53:29;0.70;;;0.70;;
7653;SDS011;3869;48.406;10.774;2023-04-29T09:55:58;0.50;;;0.50;;
7653;SDS011;3869;48.406;10.774;2023-04-29T09:58:28;0.60;;;0.60;;
7653;SDS011;3869;48.406;10.774;2023-04-29T10:00:59;0.77;;;0.70;;
7653;SDS011;3869;48.406;10.774;2023-04-29T10:03:31;0.67;;;0.67;;
7653;SDS011;3869;48.406;10.774;2023-04-29T10:06:00;0.50;;;0.50;;
7653;SDS011;3869;48.406;10.774;2023-04-29T10:08:30;0.50;;;0.50;;
7653;SDS011;3869;48.406;10.774;2023-04-29T10:10:59;0.57;;;0.57;;
7653;SDS011;3869;48.406;10.774;2023-04-29T10:13:29;0.60;;;0.60;;
7653;SDS011;3869;48.406;10.774;2023-04-29T10:15:59;0.50;;;0.50;;
7653;SDS011;3869;48.406;10.774;2023-04-29T10:18:36;0.60;;;0.60;;
7653;SDS011;3869;48.406;10.774;2023-04-29T10:21:07;0.60;;;0.60;;
7653;SDS011;3869;48.406;10.774;2023-04-29T10:23:35;0.80;;;0.80;;
7653;SDS011;3869;48.406;10.774;2023-04-29T10:26:03;0.50;;;0.50;;
7653;SDS011;3869;48.406;10.774;2023-04-29T10:28:33;0.60;;;0.60;;
7653;SDS011;3869;48.406;10.774;2023-04-29T10:31:03;0.67;;;0.67;;
7653;SDS011;3869;48.406;10.774;2023-04-29T10:33:34;0.80;;;0.80;;
7653;SDS011;3869;48.406;10.774;2023-04-29T10:36:04;0.87;;;0.87;;
7653;SDS011;3869;48.406;10.774;2023-04-29T10:38:35;0.80;;;0.80;;
7653;SDS011;3869;48.406;10.774;2023-04-29T10:41:07;0.97;;;0.97;;
7653;SDS011;3869;48.406;10.774;2023-04-29T10:43:41;0.70;;;0.70;;
7653;SDS011;3869;48.406;10.774;2023-04-29T10:48:59;0.83;;;0.83;;
7653;SDS011;3869;48.406;10.774;2023-04-29T10:51:29;0.60;;;0.60;;
7653;SDS011;3869;48.406;10.774;2023-04-29T10:53:59;0.70;;;0.70;;
7653;SDS011;3869;48.406;10.774;2023-04-29T10:56:35;0.60;;;0.60;;
7653;SDS011;3869;48.406;10.774;2023-04-29T10:59:04;0.67;;;0.67;;
7653;SDS011;3869;48.406;10.774;2023-04-29T11:01:39;0.60;;;0.60;;
7653;SDS011;3869;48.406;10.774;2023-04-29T11:04:13;0.87;;;0.87;;
7653;SDS011;3869;48.406;10.774;2023-04-29T11:06:46;0.90;;;0.90;;
7653;SDS011;3869;48.406;10.774;2023-04-29T11:09:18;0.67;;;0.67;;
7653;SDS011;3869;48.406;10.774;2023-04-29T11:11:54;0.50;;;0.50;;
7653;SDS011;3869;48.406;10.774;2023-04-29T11:14:26;0.60;;;0.60;;
7653;SDS011;3869;48.406;10.774;2023-04-29T11:16:57;0.90;;;0.90;;
7653;SDS011;3869;48.406;10.774;2023-04-29T11:19:30;1.07;;;0.73;;
7653;SDS011;3869;48.406;10.774;2023-04-29T11:24:58;0.80;;;0.70;;
7653;SDS011;3869;48.406;10.774;2023-04-29T11:27:29;0.80;;;0.70;;
7653;SDS011;3869;48.406;10.774;2023-04-29T11:29:58;0.70;;;0.70;;
7653;SDS011;3869;48.406;10.774;2023-04-29T11:32:27;0.80;;;0.80;;
7653;SDS011;3869;48.406;10.774;2023-04-29T11:35:07;0.70;;;0.60;;
7653;SDS011;3869;48.406;10.774;2023-04-29T11:37:37;5.50;;;1.13;;
7653;SDS011;3869;48.406;10.774;2023-04-29T11:40:05;0.57;;;0.57;;
7653;SDS011;3869;48.406;10.774;2023-04-29T11:42:34;0.83;;;0.83;;
7653;SDS011;3869;48.406;10.774;2023-04-29T11:45:03;0.60;;;0.60;;
7653;SDS011;3869;48.406;10.774;2023-04-29T11:47:32;0.60;;;0.60;;
7653;SDS011;3869;48.406;10.774;2023-04-29T11:50:03;0.60;;;0.60;;
7653;SDS011;3869;48.406;10.774;2023-04-29T11:52:35;0.60;;;0.60;;
7653;SDS011;3869;48.406;10.774;2023-04-29T11:55:05;0.50;;;0.50;;
7653;SDS011;3869;48.406;10.774;2023-04-29T11:57:35;0.97;;;0.80;;
7653;SDS011;3869;48.406;10.774;2023-04-29T12:00:04;0.50;;;0.50;;
7653;SDS011;3869;48.406;10.774;2023-04-29T12:02:35;0.60;;;0.60;;
7653;SDS011;3869;48.406;10.774;2023-04-29T12:05:04;0.50;;;0.50;;
7653;SDS011;3869;48.406;10.774;2023-04-29T12:07:35;0.70;;;0.70;;
7653;SDS011;3869;48.406;10.774;2023-04-29T12:10:06;0.70;;;0.70;;
7653;SDS011;3869;48.406;10.774;2023-04-29T12:12:36;1.03;;;0.60;;
7653;SDS011;3869;48.406;10.774;2023-04-29T12:15:06;0.50;;;0.50;;
7653;SDS011;3869;48.406;10.774;2023-04-29T12:17:36;0.60;;;0.60;;
7653;SDS011;3869;48.406;10.774;2023-04-29T12:20:05;1.43;;;0.70;;
7653;SDS011;3869;48.406;10.774;2023-04-29T12:22:36;0.60;;;0.60;;
7653;SDS011;3869;48.406;10.774;2023-04-29T12:25:05;0.83;;;0.67;;
7653;SDS011;3869;48.406;10.774;2023-04-29T12:27:34;0.50;;;0.50;;
7653;SDS011;3869;48.406;10.774;2023-04-29T12:30:05;0.50;;;0.50;;
7653;SDS011;3869;48.406;10.774;2023-04-29T12:32:35;0.50;;;0.50;;
7653;SDS011;3869;48.406;10.774;2023-04-29T12:35:03;0.67;;;0.67;;
7653;SDS011;3869;48.406;10.774;2023-04-29T12:37:32;0.60;;;0.60;;
7653;SDS011;3869;48.406;10.774;2023-04-29T12:40:02;0.70;;;0.70;;
7653;SDS011;3869;48.406;10.774;2023-04-29T12:42:31;0.70;;;0.70;;
7653;SDS011;3869;48.406;10.774;2023-04-29T12:44:59;0.70;;;0.60;;
7653;SDS011;3869;48.406;10.774;2023-04-29T12:47:30;0.60;;;0.60;;
7653;SDS011;3869;48.406;10.774;2023-04-29T12:49:59;0.60;;;0.60;;
7653;SDS011;3869;48.406;10.774;2023-04-29T12:52:28;1.33;;;0.83;;
7653;SDS011;3869;48.406;10.774;2023-04-29T12:54:56;0.50;;;0.50;;
7653;SDS011;3869;48.406;10.774;2023-04-29T12:57:26;0.60;;;0.60;;
7653;SDS011;3869;48.406;10.774;2023-04-29T12:59:54;0.60;;;0.60;;
7653;SDS011;3869;48.406;10.774;2023-04-29T13:02:22;0.50;;;0.50;;
7653;SDS011;3869;48.406;10.774;2023-04-29T13:04:51;0.60;;;0.60;;
7653;SDS011;3869;48.406;10.774;2023-04-29T13:07:19;0.67;;;0.67;;
7653;SDS011;3869;48.406;10.774;2023-04-29T13:09:47;0.80;;;0.80;;
7653;SDS011;3869;48.406;10.774;2023-04-29T13:12:16;0.57;;;0.57;;
7653;SDS011;3869;48.406;10.774;2023-04-29T13:14:45;0.50;;;0.50;;
7653;SDS011;3869;48.406;10.774;2023-04-29T13:17:13;0.60;;;0.60;;
7653;SDS011;3869;48.406;10.774;2023-04-29T13:19:41;0.63;;;0.60;;
7653;SDS011;3869;48.406;10.774;2023-04-29T13:22:17;0.60;;;0.60;;
7653;SDS011;3869;48.406;10.774;2023-04-29T13:24:45;0.50;;;0.50;;
7653;SDS011;3869;48.406;10.774;2023-04-29T13:27:13;0.60;;;0.60;;
7653;SDS011;3869;48.406;10.774;2023-04-29T13:29:41;0.60;;;0.60;;
7653;SDS011;3869;48.406;10.774;2023-04-29T13:32:11;1.07;;;0.70;;
7653;SDS011;3869;48.406;10.774;2023-04-29T13:34:39;0.57;;;0.57;;
7653;SDS011;3869;48.406;10.774;2023-04-29T13:37:08;0.70;;;0.63;;
7653;SDS011;3869;48.406;10.774;2023-04-29T13:39:36;0.60;;;0.60;;
7653;SDS011;3869;48.406;10.774;2023-04-29T13:42:05;0.70;;;0.70;;
7653;SDS011;3869;48.406;10.774;2023-04-29T13:44:34;0.60;;;0.60;;
7653;SDS011;3869;48.406;10.774;2023-04-29T13:47:18;0.63;;;0.63;;
7653;SDS011;3869;48.406;10.774;2023-04-29T13:49:51;0.60;;;0.60;;
7653;SDS011;3869;48.406;10.774;2023-04-29T13:52:23;0.50;;;0.50;;
7653;SDS011;3869;48.406;10.774;2023-04-29T13:55:11;1.53;;;0.70;;
7653;SDS011;3869;48.406;10.774;2023-04-29T13:57:41;0.60;;;0.60;;
7653;SDS011;3869;48.406;10.774;2023-04-29T14:00:30;0.70;;;0.70;;
7653;SDS011;3869;48.406;10.774;2023-04-29T14:03:19;0.80;;;0.80;;
7653;SDS011;3869;48.406;10.774;2023-04-29T14:05:47;0.67;;;0.67;;
7653;SDS011;3869;48.406;10.774;2023-04-29T14:08:16;0.67;;;0.67;;
7653;SDS011;3869;48.406;10.774;2023-04-29T14:10:44;0.60;;;0.60;;
7653;SDS011;3869;48.406;10.774;2023-04-29T14:13:13;0.60;;;0.60;;
7653;SDS011;3869;48.406;10.774;2023-04-29T14:15:41;0.70;;;0.70;;
7653;SDS011;3869;48.406;10.774;2023-04-29T14:18:09;0.70;;;0.70;;
7653;SDS011;3869;48.406;10.774;2023-04-29T14:20:38;0.63;;;0.63;;
7653;SDS011;3869;48.406;10.774;2023-04-29T14:23:06;0.50;;;0.50;;
7653;SDS011;3869;48.406;10.774;2023-04-29T14:25:34;0.63;;;0.63;;
7653;SDS011;3869;48.406;10.774;2023-04-29T14:28:02;1.23;;;0.57;;
7653;SDS011;3869;48.406;10.774;2023-04-29T14:30:30;1.40;;;1.17;;
7653;SDS011;3869;48.406;10.774;2023-04-29T14:32:58;1.00;;;0.60;;
7653;SDS011;3869;48.406;10.774;2023-04-29T14:35:26;0.57;;;0.57;;
7653;SDS011;3869;48.406;10.774;2023-04-29T14:37:56;0.70;;;0.60;;
7653;SDS011;3869;48.406;10.774;2023-04-29T14:40:24;2.20;;;0.70;;
7653;SDS011;3869;48.406;10.774;2023-04-29T14:42:52;1.23;;;0.67;;
7653;SDS011;3869;48.406;10.774;2023-04-29T14:45:20;0.70;;;0.70;;
7653;SDS011;3869;48.406;10.774;2023-04-29T14:47:48;1.00;;;0.90;;
7653;SDS011;3869;48.406;10.774;2023-04-29T14:50:16;0.50;;;0.50;;
7653;SDS011;3869;48.406;10.774;2023-04-29T14:52:44;0.57;;;0.57;;
7653;SDS011;3869;48.406;10.774;2023-04-29T14:55:14;0.60;;;0.60;;
7653;SDS011;3869;48.406;10.774;2023-04-29T14:57:42;0.70;;;0.70;;
7653;SDS011;3869;48.406;10.774;2023-04-29T15:00:10;1.30;;;1.30;;
7653;SDS011;3869;48.406;10.774;2023-04-29T15:02:40;0.93;;;0.93;;
7653;SDS011;3869;48.406;10.774;2023-04-29T15:05:08;0.90;;;0.90;;
7653;SDS011;3869;48.406;10.774;2023-04-29T15:07:36;5.40;;;1.00;;
7653;SDS011;3869;48.406;10.774;2023-04-29T15:10:04;0.60;;;0.60;;
7653;SDS011;3869;48.406;10.774;2023-04-29T15:12:36;0.60;;;0.60;;
7653;SDS011;3869;48.406;10.774;2023-04-29T15:15:04;0.80;;;0.80;;
7653;SDS011;3869;48.406;10.774;2023-04-29T15:17:33;0.70;;;0.70;;
7653;SDS011;3869;48.406;10.774;2023-04-29T15:20:01;0.77;;;0.77;;